Time;durP1;ratioP1;P1;durP2;ratioP2;P2;SDS_P1;SDS_P2;PMS_P1;PMS_P2;Temp;Humidity;BMP_temperature;BMP_pressure;BME280_temperature;BME280_humidity;BME280_pressure;Samples;Min_cycle;Max_cycle;Signal;HPM_P1;HPM_P2
2021/04/20 00:02:06;;;;;;;1.90;1.30;;;;;;;2.71;59.15;101833.41;5085777;28;20193;-72
2021/04/20 00:04:33;;;;;;;2.60;1.20;;;;;;;3.23;59.33;101914.72;5087544;28;20211;-72
2021/04/20 00:07:01;;;;;;;5.40;1.40;;;;;;;3.19;60.21;101913.03;5073695;28;20686;-72
2021/04/20 00:09:29;;;;;;;2.07;1.10;;;;;;;3.17;59.97;101909.53;5086583;28;20595;-72
2021/04/20 00:11:56;;;;;;;3.50;1.27;;;;;;;3.03;59.72;101895.63;5091974;28;20298;-73
2021/04/20 00:14:23;;;;;;;1.27;1.17;;;;;;;3.13;59.41;101913.16;5093574;28;20216;-73
2021/04/20 00:16:51;;;;;;;3.50;1.10;;;;;;;3.00;59.65;101890.38;5093833;28;20191;-73
2021/04/20 00:19:18;;;;;;;2.63;1.33;;;;;;;3.08;59.18;101909.72;5088264;28;20235;-72
2021/04/20 00:21:46;;;;;;;1.10;1.00;;;;;;;3.01;59.23;101893.00;5092998;28;20212;-70
2021/04/20 00:24:13;;;;;;;1.93;1.17;;;;;;;3.04;59.63;101903.56;5076764;28;20225;-70
2021/04/20 00:26:41;;;;;;;3.17;1.43;;;;;;;2.97;59.43;101885.13;5073096;28;20217;-73
2021/04/20 00:29:08;;;;;;;2.10;1.40;;;;;;;3.03;59.50;101899.16;5091053;28;20210;-72
2021/04/20 00:31:36;;;;;;;3.33;1.30;;;;;;;3.07;58.81;101897.34;5086173;28;20201;-72
2021/04/20 00:34:03;;;;;;;5.40;1.30;;;;;;;3.06;58.78;101895.56;5083002;28;20208;-73
2021/04/20 00:36:30;;;;;;;1.53;1.17;;;;;;;3.04;58.80;101898.25;5090803;28;20302;-72
2021/04/20 00:38:58;;;;;;;3.27;1.27;;;;;;;3.04;59.28;101892.06;5092187;28;20738;-72
2021/04/20 00:41:25;;;;;;;1.60;1.20;;;;;;;3.03;58.79;101888.53;5091756;28;20215;-72
2021/04/20 00:43:53;;;;;;;2.83;1.17;;;;;;;2.99;59.48;101885.97;5084440;28;20220;-73
2021/04/20 00:46:24;;;;;;;1.47;1.10;;;;;;;2.99;59.45;101884.19;5086672;28;20252;-72
2021/04/20 00:48:52;;;;;;;4.70;1.07;;;;;;;2.98;58.89;101877.13;5076734;28;20277;-73
2021/04/20 00:51:20;;;;;;;4.90;1.47;;;;;;;2.80;59.34;101843.88;5085301;28;20245;-72
2021/04/20 00:53:47;;;;;;;4.40;0.90;;;;;;;2.38;59.32;101771.25;5089302;28;20295;-70
2021/04/20 00:56:18;;;;;;;2.47;1.20;;;;;;;2.96;58.60;101864.81;5078883;28;20205;-71
2021/04/20 00:58:45;;;;;;;1.33;1.10;;;;;;;2.95;58.72;101865.72;5088505;28;20196;-71
2021/04/20 01:01:13;;;;;;;3.30;1.00;;;;;;;2.47;58.84;101783.50;5085653;28;20192;-71
2021/04/20 01:03:40;;;;;;;7.13;1.50;;;;;;;2.95;58.95;101861.28;5082059;28;20200;-71
2021/04/20 01:06:08;;;;;;;143.50;114.37;;;;;;;2.92;60.08;101865.78;5079681;28;20256;-72
2021/04/20 01:08:36;;;;;;;121.57;53.03;;;;;;;2.79;61.76;101862.47;5086782;28;20220;-71
2021/04/20 01:11:05;;;;;;;3.53;2.30;;;;;;;2.83;60.45;101857.97;5084089;28;20272;-70
2021/04/20 01:13:34;;;;;;;4.63;2.00;;;;;;;2.84;61.65;101849.13;5088238;28;20262;-72
2021/04/20 01:16:02;;;;;;;6.87;1.87;;;;;;;2.86;63.60;101848.19;5089367;28;20196;-70
2021/04/20 01:18:32;;;;;;;1.73;1.47;;;;;;;2.57;62.87;101797.44;5078875;28;20198;-70
2021/04/20 01:21:01;;;;;;;2.47;1.83;;;;;;;2.85;65.97;101848.22;5088141;28;20200;-70
2021/04/20 01:23:46;;;;;;;1.57;1.27;;;;;;;2.88;66.49;101840.19;5088488;28;20616;-72
2021/04/20 01:26:15;;;;;;;2.50;1.73;;;;;;;2.84;64.70;101844.69;5091521;28;20238;-72
2021/04/20 01:28:43;;;;;;;0.80;0.80;;;;;;;2.96;63.49;101848.88;5091235;28;20195;-70
2021/04/20 01:31:11;;;;;;;2.60;1.00;;;;;;;2.85;64.45;101832.31;5081452;28;20274;-71
2021/04/20 01:33:40;;;;;;;4.20;1.30;;;;;;;3.06;62.57;101840.75;5081226;28;20197;-71
2021/04/20 01:36:08;;;;;;;2.10;1.00;;;;;;;3.19;62.41;101833.41;5080252;28;20599;-70
2021/04/20 01:38:35;;;;;;;2.77;1.20;;;;;;;3.21;61.94;101820.09;5083405;28;20291;-72
2021/04/20 01:41:03;;;;;;;2.00;1.00;;;;;;;3.45;61.45;101839.97;5087643;28;20311;-73
2021/04/20 01:43:32;;;;;;;1.77;1.10;;;;;;;3.47;61.64;101822.22;5090812;28;20734;-73
2021/04/20 01:45:59;;;;;;;1.77;0.90;;;;;;;3.63;61.26;101839.56;5070642;28;20304;-71
2021/04/20 01:48:27;;;;;;;0.93;0.90;;;;;;;3.71;60.64;101837.66;5070247;28;20227;-73
2021/04/20 01:50:54;;;;;;;4.37;1.00;;;;;;;3.77;60.03;101826.88;5083641;28;20193;-73
2021/04/20 01:53:22;;;;;;;1.70;0.70;;;;;;;3.82;59.67;101830.31;5090414;28;20283;-72
2021/04/20 01:55:49;;;;;;;1.13;0.80;;;;;;;3.87;59.63;101827.53;5084506;28;20671;-70
2021/04/20 01:58:18;;;;;;;1.70;0.90;;;;;;;3.81;59.39;101812.63;5073978;28;20224;-71
2021/04/20 02:00:46;;;;;;;0.70;0.70;;;;;;;3.83;59.52;101802.81;5084725;28;20228;-72
2021/04/20 02:03:13;;;;;;;1.83;1.00;;;;;;;3.94;59.92;101824.69;5086662;28;20197;-71
2021/04/20 02:05:41;;;;;;;0.83;0.70;;;;;;;3.78;59.69;101796.75;5077949;28;20248;-70
2021/04/20 02:08:08;;;;;;;2.40;0.90;;;;;;;3.98;59.87;101822.84;5067632;28;20242;-70
2021/04/20 02:10:35;;;;;;;1.00;1.00;;;;;;;4.01;59.03;101815.72;5074641;28;20331;-71
2021/04/20 02:13:03;;;;;;;2.97;0.90;;;;;;;3.97;59.38;101803.38;5082322;28;20192;-72
2021/04/20 02:15:30;;;;;;;3.20;0.90;;;;;;;3.82;59.51;101776.31;5091749;28;20380;-72
2021/04/20 02:17:59;;;;;;;1.13;0.93;;;;;;;4.08;59.13;101810.25;5079953;28;20220;-72
2021/04/20 02:20:29;;;;;;;1.00;0.90;;;;;;;4.08;58.94;101810.25;5072480;28;20731;-70
2021/04/20 02:22:56;;;;;;;4.57;1.47;;;;;;;3.82;58.65;101761.22;5078515;28;20197;-70
2021/04/20 02:25:24;;;;;;;0.90;0.90;;;;;;;3.91;58.93;101784.91;5075249;28;20217;-71
2021/04/20 02:27:53;;;;;;;4.30;0.90;;;;;;;4.11;58.66;101804.84;5084435;28;20198;-72
2021/04/20 02:30:21;;;;;;;0.83;0.80;;;;;;;4.12;59.17;101807.47;5078792;28;20845;-72
2021/04/20 02:32:49;;;;;;;1.37;0.90;;;;;;;4.10;59.26;101803.09;5077423;28;20294;-72
2021/04/20 02:35:19;;;;;;;2.57;1.07;;;;;;;4.11;59.33;101807.50;5071377;28;20550;-72
2021/04/20 02:37:47;;;;;;;2.50;1.07;;;;;;;4.11;59.38;101800.41;5082251;28;20200;-71
2021/04/20 02:40:19;;;;;;;0.70;0.70;;;;;;;4.11;59.74;101807.50;5077517;28;20200;-72
2021/04/20 02:42:48;;;;;;;4.97;1.27;;;;;;;4.12;59.27;101802.16;5073040;28;20246;-69
2021/04/20 02:45:17;;;;;;;1.10;1.00;;;;;;;4.12;60.05;101801.28;5090232;28;20216;-70
2021/04/20 02:47:44;;;;;;;2.47;1.30;;;;;;;4.09;59.51;101796.03;5088839;28;20193;-71
2021/04/20 02:50:14;;;;;;;8.03;0.93;;;;;;;4.11;59.50;101794.22;5080231;28;20585;-72
2021/04/20 02:52:42;;;;;;;1.07;0.77;;;;;;;4.10;60.08;101792.47;5075813;28;20304;-72
2021/04/20 02:55:12;;;;;;;0.90;0.90;;;;;;;4.14;59.52;101786.16;5084026;28;20656;-71
2021/04/20 02:57:44;;;;;;;0.80;0.77;;;;;;;4.14;60.03;101788.81;5073119;28;20197;-71
2021/04/20 03:00:14;;;;;;;3.80;1.00;;;;;;;4.16;59.33;101787.00;5090295;28;20252;-70
2021/04/20 03:02:44;;;;;;;1.30;0.83;;;;;;;3.85;59.48;101739.91;5077657;28;20204;-71
2021/04/20 03:05:14;;;;;;;93.33;53.20;;;;;;;4.13;59.59;101774.66;5070597;28;20715;-72
2021/04/20 03:07:42;;;;;;;2.17;1.67;;;;;;;4.15;59.50;101780.81;5077257;28;20717;-70
2021/04/20 03:10:11;;;;;;;1.97;1.20;;;;;;;4.15;59.03;101779.94;5075701;28;20240;-72
2021/04/20 03:12:39;;;;;;;1.90;1.07;;;;;;;4.16;58.89;101777.25;5084532;28;20642;-72
2021/04/20 03:15:10;;;;;;;1.37;1.00;;;;;;;4.16;59.21;101779.91;5077844;28;20197;-72
2021/04/20 03:17:39;;;;;;;1.83;0.87;;;;;;;3.97;59.18;101741.38;5080130;28;20658;-73
2021/04/20 03:20:08;;;;;;;3.80;1.00;;;;;;;4.02;59.05;101748.34;5079472;28;20193;-74
2021/04/20 03:22:37;;;;;;;2.43;0.83;;;;;;;4.18;59.23;101769.22;5092396;28;20304;-72
2021/04/20 03:25:23;;;;;;;1.07;0.90;;;;;;;4.22;59.79;101768.22;5091122;28;20266;-72
2021/04/20 03:27:53;;;;;;;1.03;0.90;;;;;;;4.19;59.23;101763.00;5079146;28;20243;-72
2021/04/20 03:30:24;;;;;;;1.13;0.97;;;;;;;3.99;59.19;101721.88;5076764;28;20206;-71
2021/04/20 03:33:14;;;;;;;2.13;1.10;;;;;;;4.28;59.29;101755.66;5080117;28;20213;-72
2021/04/20 03:35:57;;;;;;;1.07;0.80;;;;;;;4.28;60.30;101755.66;5079624;28;20250;-72
2021/04/20 03:38:34;;;;;;;2.10;0.90;;;;;;;4.29;58.90;101756.56;5094025;28;20197;-72
2021/04/20 03:41:07;;;;;;;0.93;0.83;;;;;;;4.27;58.98;101743.28;5091583;28;20200;-72
2021/04/20 03:43:37;;;;;;;4.20;1.27;;;;;;;4.34;59.26;101749.34;5084726;28;20206;-73
2021/04/20 03:46:09;;;;;;;4.87;1.10;;;;;;;4.35;58.99;101745.75;5074457;28;20213;-73
2021/04/20 03:48:46;;;;;;;8.90;0.93;;;;;;;4.36;58.98;101752.81;5082668;28;20220;-73
2021/04/20 03:51:18;;;;;;;3.60;0.80;;;;;;;4.37;59.07;101738.63;5073270;28;20201;-73
2021/04/20 03:53:49;;;;;;;0.97;0.87;;;;;;;4.41;59.16;101736.75;5084980;28;20628;-73
2021/04/20 03:56:22;;;;;;;2.20;0.97;;;;;;;4.47;59.12;101740.09;5089133;28;20272;-73
2021/04/20 03:58:52;;;;;;;1.00;0.90;;;;;;;4.51;60.13;101741.75;5090585;28;20205;-72
2021/04/20 04:01:21;;;;;;;3.00;0.77;;;;;;;4.60;58.86;101738.88;5084673;28;20206;-73
2021/04/20 04:03:51;;;;;;;3.63;1.00;;;;;;;4.52;59.37;101711.59;5086278;28;20250;-74
2021/04/20 04:06:19;;;;;;;1.93;0.77;;;;;;;4.49;59.26;101690.41;5091807;28;20722;-73
2021/04/20 04:08:50;;;;;;;2.03;0.83;;;;;;;4.84;58.99;101733.78;5078112;28;20207;-73
2021/04/20 04:11:23;;;;;;;1.33;1.10;;;;;;;4.90;58.82;101725.66;5080288;28;20311;-70
2021/04/20 04:13:50;;;;;;;0.60;0.60;;;;;;;4.91;59.11;101719.41;5075346;28;20722;-71
2021/04/20 04:16:24;;;;;;;1.17;1.00;;;;;;;4.92;59.22;101705.19;5080758;28;20202;-71
2021/04/20 04:19:02;;;;;;;1.57;1.00;;;;;;;5.16;58.89;101723.06;5077475;28;20668;-70
2021/04/20 04:21:44;;;;;;;1.60;1.10;;;;;;;5.35;58.29;101727.88;5080467;28;20668;-70
2021/04/20 04:24:17;;;;;;;1.47;0.83;;;;;;;5.11;58.28;101661.13;5077517;28;20220;-71
2021/04/20 04:26:52;;;;;;;1.30;1.20;;;;;;;5.63;58.14;101726.09;5076383;28;20214;-70
2021/04/20 04:29:20;;;;;;;1.20;1.10;;;;;;;5.74;57.81;101717.75;5081703;28;20730;-71
2021/04/20 04:31:48;;;;;;;1.77;1.00;;;;;;;5.89;57.09;101720.84;5072134;28;20517;-71
2021/04/20 04:34:18;;;;;;;0.77;0.77;;;;;;;5.87;57.21;101693.34;5072921;28;20197;-71
2021/04/20 04:36:46;;;;;;;2.03;1.00;;;;;;;6.17;57.17;101723.47;5078233;28;20721;-70
2021/04/20 04:39:16;;;;;;;2.17;1.00;;;;;;;6.21;58.25;101708.22;5077483;28;20198;-70
2021/04/20 04:41:43;;;;;;;1.77;1.23;;;;;;;6.33;57.23;101693.59;5083182;28;20226;-69
2021/04/20 04:44:12;;;;;;;0.90;0.90;;;;;;;6.55;57.38;101710.59;5077693;28;20195;-70
2021/04/20 04:46:40;;;;;;;1.20;0.93;;;;;;;6.53;57.39;101689.31;5073739;28;20238;-71
2021/04/20 04:49:08;;;;;;;2.17;1.10;;;;;;;6.20;58.18;101642.47;5080706;28;20204;-72
2021/04/20 04:51:38;;;;;;;1.00;0.90;;;;;;;6.76;58.92;101706.28;5079869;28;20606;-71
2021/04/20 04:54:06;;;;;;;1.17;1.07;;;;;;;6.84;58.73;101720.22;5078068;28;20525;-71
2021/04/20 04:56:35;;;;;;;1.27;1.13;;;;;;;6.80;59.39;101719.47;5066996;28;20191;-71
2021/04/20 04:59:05;;;;;;;1.77;1.10;;;;;;;7.02;58.40;101714.19;5075390;28;20222;-72
2021/04/20 05:01:36;;;;;;;1.27;1.10;;;;;;;7.00;58.72;101684.00;5082309;28;20199;-72
2021/04/20 05:04:07;;;;;;;1.23;0.70;;;;;;;7.29;58.36;101706.91;5079799;28;20539;-72
2021/04/20 05:06:40;;;;;;;1.50;1.00;;;;;;;7.42;59.21;101707.34;5079129;28;20693;-72
2021/04/20 05:09:11;;;;;;;0.80;0.80;;;;;;;7.23;58.31;101647.53;5074880;28;20205;-73
2021/04/20 05:11:40;;;;;;;3.43;1.00;;;;;;;7.70;58.19;101707.13;5080767;28;20228;-72
2021/04/20 05:14:08;;;;;;;1.57;1.03;;;;;;;7.70;58.67;101707.13;5081403;28;20212;-72
2021/04/20 05:16:36;;;;;;;5.83;1.03;;;;;;;7.82;58.06;101700.38;5078379;28;20687;-72
2021/04/20 05:19:05;;;;;;;1.87;0.90;;;;;;;8.11;57.97;101710.75;5077735;28;20214;-71
2021/04/20 05:21:33;;;;;;;0.73;0.73;;;;;;;8.22;57.39;101707.63;5073791;28;20283;-72
2021/04/20 05:24:00;;;;;;;2.47;1.37;;;;;;;8.34;57.26;101699.13;5069644;28;20670;-71
2021/04/20 05:26:28;;;;;;;2.37;0.90;;;;;;;8.49;56.56;101703.78;5082283;28;20249;-73
2021/04/20 05:28:57;;;;;;;2.47;0.97;;;;;;;8.59;56.49;101706.94;5089397;28;20711;-74
2021/04/20 05:31:27;;;;;;;1.40;1.23;;;;;;;8.31;56.62;101640.34;5078036;28;20236;-74
2021/04/20 05:33:56;;;;;;;1.03;0.97;;;;;;;8.74;57.33;101702.72;5077473;28;20198;-72
2021/04/20 05:36:24;;;;;;;1.73;1.20;;;;;;;8.59;56.49;101642.69;5083272;28;20241;-72
2021/04/20 05:38:52;;;;;;;1.80;0.90;;;;;;;8.93;55.32;101691.09;5072567;28;20192;-71
2021/04/20 05:41:23;;;;;;;1.87;1.00;;;;;;;9.18;55.80;101690.81;5079516;28;20238;-72
2021/04/20 05:43:52;;;;;;;2.00;0.70;;;;;;;9.43;55.23;101687.84;5075188;28;20579;-72
2021/04/20 05:46:20;;;;;;;1.10;0.80;;;;;;;9.52;55.08;101681.22;5072729;28;20491;-71
2021/04/20 05:48:50;;;;;;;0.80;0.80;;;;;;;9.67;54.18;101680.44;5084739;28;20200;-74
2021/04/20 05:51:20;;;;;;;0.77;0.77;;;;;;;9.86;54.28;101681.28;5084556;28;20300;-74
2021/04/20 05:53:49;;;;;;;3.50;1.00;;;;;;;10.09;53.97;101688.16;5078524;28;20213;-74
2021/04/20 05:56:17;;;;;;;3.57;1.10;;;;;;;10.23;53.14;101688.38;5073496;28;20226;-74
2021/04/20 05:58:45;;;;;;;7.40;1.13;;;;;;;10.19;52.55;101684.09;5077674;28;20206;-74
2021/04/20 06:01:15;;;;;;;5.47;1.20;;;;;;;10.18;52.38;101682.34;5075338;28;20485;-74
2021/04/20 06:03:44;;;;;;;0.83;0.83;;;;;;;10.42;53.19;101679.38;5073690;28;20221;-74
2021/04/20 06:06:15;;;;;;;4.00;0.83;;;;;;;10.55;52.19;101673.28;5076472;28;20224;-74
2021/04/20 06:08:44;;;;;;;1.33;0.67;;;;;;;10.46;51.74;101668.41;5079717;28;20278;-74
2021/04/20 06:11:13;;;;;;;1.27;0.90;;;;;;;10.11;51.86;101619.19;5080495;28;20615;-75
2021/04/20 06:13:40;;;;;;;1.33;0.87;;;;;;;10.50;52.24;101677.16;5075539;28;20278;-76
2021/04/20 06:16:11;;;;;;;2.67;1.07;;;;;;;10.79;52.32;101668.44;5077509;28;20201;-76
2021/04/20 06:18:39;;;;;;;1.00;0.90;;;;;;;10.75;51.10;101664.19;5078185;28;20572;-76
2021/04/20 06:21:08;;;;;;;3.20;1.00;;;;;;;10.87;50.39;101663.50;5075006;28;20223;-74
2021/04/20 06:23:37;;;;;;;1.53;1.20;;;;;;;10.82;50.51;101649.44;5072935;28;20287;-73
2021/04/20 06:26:07;;;;;;;1.43;0.90;;;;;;;11.13;51.21;101662.09;5082648;28;20307;-74
2021/04/20 06:28:37;;;;;;;0.80;0.73;;;;;;;11.29;50.20;101647.75;5073990;28;20193;-75
2021/04/20 06:31:07;;;;;;;1.77;0.97;;;;;;;11.38;48.79;101649.97;5084196;28;20352;-75
2021/04/20 06:33:37;;;;;;;1.03;0.70;;;;;;;11.44;49.63;101644.22;5080982;28;20219;-75
2021/04/20 06:36:07;;;;;;;1.57;0.90;;;;;;;11.35;48.85;101602.59;5089854;28;20563;-75
2021/04/20 06:38:35;;;;;;;0.83;0.80;;;;;;;11.69;49.30;101654.47;5084179;28;20190;-75
2021/04/20 06:41:06;;;;;;;0.97;0.87;;;;;;;11.90;48.53;101647.84;5086303;28;20193;-75
2021/04/20 06:43:56;;;;;;;0.80;0.80;;;;;;;12.12;47.88;101637.53;5081081;28;20200;-75
2021/04/20 06:46:30;;;;;;;2.00;1.00;;;;;;;12.41;46.56;101653.78;5084039;28;20262;-75
2021/04/20 06:49:01;;;;;;;1.70;0.90;;;;;;;12.36;46.63;101645.09;5085349;28;20203;-75
2021/04/20 06:51:35;;;;;;;1.17;0.90;;;;;;;12.54;46.17;101646.66;5080205;28;20572;-75
2021/04/20 06:54:13;;;;;;;4.27;1.00;;;;;;;12.70;45.91;101639.38;5083344;28;20292;-75
2021/04/20 06:56:50;;;;;;;1.13;0.90;;;;;;;12.79;43.96;101637.06;5077558;28;20212;-75
2021/04/20 06:59:28;;;;;;;1.20;1.10;;;;;;;12.70;43.04;101633.97;5078399;28;20206;-75
2021/04/20 07:02:01;;;;;;;0.50;0.50;;;;;;;12.89;45.45;101638.22;5082932;28;20621;-76
2021/04/20 07:04:41;;;;;;;3.00;1.07;;;;;;;13.04;43.18;101634.56;5079762;28;21049;-75
2021/04/20 07:07:14;;;;;;;0.57;0.57;;;;;;;12.97;41.94;101625.13;5082862;28;20758;-74
2021/04/20 07:09:46;;;;;;;4.97;0.67;;;;;;;12.53;42.74;101568.63;5077890;28;20222;-75
2021/04/20 07:12:16;;;;;;;0.60;0.60;;;;;;;13.06;42.67;101624.53;5076372;28;20272;-75
2021/04/20 07:14:48;;;;;;;1.57;0.93;;;;;;;13.33;42.19;101625.47;5077900;28;20203;-75
2021/04/20 07:17:29;;;;;;;0.77;0.70;;;;;;;13.43;42.30;101617.63;5078173;28;20670;-75
2021/04/20 07:20:39;;;;;;;2.27;0.90;;;;;;;13.66;42.44;101617.00;5077224;28;20286;-75
2021/04/20 07:24:03;;;;;;;0.83;0.83;;;;;;;13.81;40.77;101628.63;5058627;28;20285;-74
2021/04/20 07:26:51;;;;;;;0.93;0.93;;;;;;;14.03;41.32;101595.59;4990576;28;20320;-74
2021/04/20 07:29:38;;;;;;;0.40;0.40;;;;;;;14.21;39.47;101605.16;5073628;28;20205;-74
2021/04/20 07:32:31;;;;;;;3.17;0.80;;;;;;;14.15;39.17;101607.41;5078321;28;20342;-74
2021/04/20 07:35:15;;;;;;;4.47;0.60;;;;;;;14.34;39.70;101598.88;5083602;28;20263;-72
2021/04/20 07:37:46;;;;;;;0.63;0.63;;;;;;;14.32;39.06;101601.69;5097925;28;20571;-73
2021/04/20 07:40:26;;;;;;;0.77;0.57;;;;;;;14.46;39.16;101592.66;5078548;28;20573;-75
2021/04/20 07:43:01;;;;;;;0.60;0.60;;;;;;;14.48;37.92;101588.88;5077795;28;20268;-73
2021/04/20 07:45:36;;;;;;;0.43;0.43;;;;;;;14.75;38.42;101587.91;5076360;28;20420;-73
2021/04/20 07:48:11;;;;;;;0.83;0.70;;;;;;;14.93;38.34;101585.69;5080739;28;20749;-73
2021/04/20 07:50:45;;;;;;;0.80;0.80;;;;;;;15.09;37.83;101579.06;5074656;28;20201;-73
2021/04/20 07:53:18;;;;;;;1.50;0.57;;;;;;;15.53;38.51;101583.88;5082225;28;20197;-73
2021/04/20 07:55:52;;;;;;;0.80;0.80;;;;;;;16.07;38.84;101577.13;5078041;28;20243;-74
2021/04/20 07:58:22;;;;;;;0.70;0.70;;;;;;;16.50;39.02;101584.56;5085567;28;20195;-74
2021/04/20 08:00:59;;;;;;;0.67;0.67;;;;;;;16.90;38.99;101580.47;5079713;28;20609;-74
2021/04/20 08:03:37;;;;;;;3.90;1.10;;;;;;;17.07;36.73;101577.22;5080121;28;20736;-74
2021/04/20 08:06:10;;;;;;;0.70;0.70;;;;;;;17.18;36.46;101572.78;5088613;28;20212;-74
2021/04/20 08:08:44;;;;;;;0.70;0.70;;;;;;;16.47;36.57;101545.00;5087917;28;20227;-74
2021/04/20 08:11:15;;;;;;;0.80;0.80;;;;;;;16.55;36.71;101568.84;5077898;28;20233;-74
2021/04/20 08:13:48;;;;;;;0.93;0.77;;;;;;;16.56;36.33;101559.72;5079776;28;20224;-74
2021/04/20 08:16:24;;;;;;;2.30;0.80;;;;;;;16.62;35.69;101564.63;5074984;28;20278;-75
2021/04/20 08:18:57;;;;;;;0.80;0.60;;;;;;;16.51;35.89;101561.91;5082538;28;20204;-74
2021/04/20 08:21:26;;;;;;;0.90;0.90;;;;;;;16.67;36.28;101562.44;5077985;28;20623;-73
2021/04/20 08:23:56;;;;;;;3.47;1.10;;;;;;;16.47;35.60;101558.56;5075040;28;20219;-73
2021/04/20 08:26:26;;;;;;;0.60;0.60;;;;;;;17.01;36.81;101556.00;5085437;28;20232;-74
2021/04/20 08:28:59;;;;;;;1.43;0.60;;;;;;;16.84;35.05;101558.41;5082240;28;20196;-74
2021/04/20 08:31:34;;;;;;;1.60;0.77;;;;;;;16.62;34.82;101554.66;5078020;28;20205;-73
2021/04/20 08:34:14;;;;;;;2.20;0.63;;;;;;;17.19;35.35;101558.22;5078749;28;20208;-74
2021/04/20 08:36:55;;;;;;;2.07;0.77;;;;;;;17.31;35.55;101532.75;5075207;28;20662;-74
2021/04/20 08:39:33;;;;;;;0.50;0.47;;;;;;;17.63;35.63;101505.59;5075533;28;20220;-74
2021/04/20 08:42:08;;;;;;;1.03;1.00;;;;;;;18.21;35.19;101535.94;5074750;28;20283;-74
2021/04/20 08:44:43;;;;;;;0.77;0.77;;;;;;;18.62;35.54;101545.91;5074103;28;20192;-74
2021/04/20 08:47:19;;;;;;;0.97;0.60;;;;;;;18.72;35.63;101506.03;5074698;28;20665;-74
2021/04/20 08:49:54;;;;;;;0.80;0.80;;;;;;;19.33;34.48;101544.00;5073819;28;20908;-74
2021/04/20 08:52:38;;;;;;;2.40;0.70;;;;;;;19.36;31.55;101507.44;5073471;28;20201;-75
2021/04/20 08:55:14;;;;;;;0.73;0.73;;;;;;;19.56;32.60;101524.69;5076505;28;20266;-75
2021/04/20 08:58:00;;;;;;;1.10;0.80;;;;;;;19.74;31.24;101529.28;5072739;28;20201;-76
2021/04/20 09:00:32;;;;;;;0.60;0.60;;;;;;;19.88;33.64;101524.38;5074059;28;20216;-76
2021/04/20 09:03:15;;;;;;;3.60;0.80;;;;;;;20.13;34.18;101521.06;5082782;28;20212;-76
2021/04/20 09:05:48;;;;;;;0.80;0.80;;;;;;;20.42;33.53;101521.00;5076927;28;20299;-75
2021/04/20 09:08:26;;;;;;;1.33;0.90;;;;;;;20.61;33.26;101515.50;5076143;28;20186;-73
2021/04/20 09:11:01;;;;;;;0.60;0.60;;;;;;;20.68;30.98;101513.00;5074964;28;20640;-74
2021/04/20 09:13:35;;;;;;;1.43;0.70;;;;;;;20.28;30.66;101503.22;5077778;28;20193;-74
2021/04/20 09:16:19;;;;;;;0.60;0.60;;;;;;;20.52;31.94;101507.34;5085956;28;20196;-74
2021/04/20 09:18:48;;;;;;;1.00;1.00;;;;;;;20.27;31.53;101509.69;5079684;28;20197;-75
2021/04/20 09:21:19;;;;;;;0.97;0.60;;;;;;;20.55;31.51;101505.19;5070528;28;20599;-75
2021/04/20 09:24:13;;;;;;;0.63;0.63;;;;;;;21.05;31.80;101504.75;5075995;28;20185;-73
2021/04/20 09:27:05;;;;;;;1.07;0.80;;;;;;;21.34;31.81;101505.44;5074651;28;20449;-74
2021/04/20 09:29:35;;;;;;;0.80;0.80;;;;;;;21.47;32.03;101498.75;5081580;28;20207;-75
2021/04/20 09:32:07;;;;;;;0.83;0.77;;;;;;;21.53;31.16;101481.72;5078406;28;20200;-76
2021/04/20 09:34:39;;;;;;;0.60;0.60;;;;;;;21.35;30.71;101485.31;5080792;28;20200;-74
2021/04/20 09:37:08;;;;;;;1.80;0.90;;;;;;;21.68;30.29;101489.19;5076291;28;20664;-75
2021/04/20 09:39:41;;;;;;;0.70;0.60;;;;;;;21.95;29.47;101488.22;5080170;28;20570;-74
2021/04/20 09:42:12;;;;;;;0.60;0.60;;;;;;;21.49;29.17;101485.78;5074519;28;20711;-74
2021/04/20 09:44:46;;;;;;;0.77;0.70;;;;;;;21.05;28.11;101481.03;5073720;28;20660;-74
2021/04/20 09:47:42;;;;;;;0.77;0.77;;;;;;;20.33;26.88;101475.50;5076578;28;20283;-72
2021/04/20 09:50:18;;;;;;;1.37;0.97;;;;;;;19.31;28.30;101452.53;5072082;28;21308;-74
2021/04/20 09:53:03;;;;;;;2.73;0.70;;;;;;;19.15;28.81;101478.47;5073311;28;20216;-72
2021/04/20 09:55:39;;;;;;;0.80;0.60;;;;;;;18.91;29.43;101469.81;5076338;28;20200;-73
2021/04/20 09:58:08;;;;;;;4.60;0.90;;;;;;;18.75;29.09;101467.63;5079535;28;21883;-74
2021/04/20 10:00:41;;;;;;;3.60;0.80;;;;;;;18.54;27.18;101464.09;5075679;28;20603;-75
2021/04/20 10:03:23;;;;;;;1.80;0.70;;;;;;;18.11;28.52;101464.34;5072704;28;20311;-74
2021/04/20 10:06:10;;;;;;;1.40;0.77;;;;;;;18.91;27.45;101469.81;5072036;28;20188;-74
2021/04/20 10:08:50;;;;;;;0.80;0.80;;;;;;;18.84;27.73;101455.91;5072314;28;20196;-74
2021/04/20 10:11:24;;;;;;;0.60;0.60;;;;;;;19.51;29.77;101440.59;5073279;28;20263;-74
2021/04/20 10:14:18;;;;;;;0.70;0.70;;;;;;;19.63;27.38;101444.09;5072132;28;20225;-74
2021/04/20 10:16:56;;;;;;;0.90;0.80;;;;;;;19.69;26.81;101454.41;5071588;28;20229;-74
2021/04/20 10:19:30;;;;;;;2.17;0.80;;;;;;;19.88;29.16;101448.91;5079298;28;20709;-74
2021/04/20 10:22:09;;;;;;;1.37;0.60;;;;;;;20.17;27.04;101436.03;5074194;28;20664;-74
2021/04/20 10:24:43;;;;;;;0.53;0.50;;;;;;;20.05;27.54;101439.97;5072253;28;20683;-74
2021/04/20 10:27:14;;;;;;;1.40;0.77;;;;;;;20.04;27.35;101435.53;5087263;28;20192;-74
2021/04/20 10:29:47;;;;;;;0.67;0.67;;;;;;;19.36;28.23;101439.34;5078548;28;20681;-74
2021/04/20 10:32:21;;;;;;;1.00;0.63;;;;;;;18.60;29.23;101434.47;5078285;28;20204;-74
2021/04/20 10:34:51;;;;;;;0.70;0.70;;;;;;;18.23;28.59;101428.75;5080653;28;20204;-74
2021/04/20 10:37:41;;;;;;;1.27;0.50;;;;;;;17.95;29.42;101426.75;5081112;28;20718;-73
2021/04/20 10:40:12;;;;;;;0.70;0.70;;;;;;;17.81;30.63;101392.66;5079114;28;20192;-73
2021/04/20 10:42:44;;;;;;;3.90;0.57;;;;;;;17.91;29.33;101425.31;5075470;28;20209;-74
2021/04/20 10:45:14;;;;;;;0.97;0.80;;;;;;;17.70;29.90;101428.03;5083078;28;20239;-73
2021/04/20 10:47:43;;;;;;;0.67;0.67;;;;;;;18.01;29.25;101360.97;5109549;28;20566;-73
2021/04/20 10:50:19;;;;;;;0.80;0.70;;;;;;;18.36;30.10;101411.31;5082473;28;20203;-73
2021/04/20 10:52:52;;;;;;;0.70;0.70;;;;;;;17.79;29.47;101415.53;5079137;28;20215;-73
2021/04/20 10:55:24;;;;;;;1.60;0.70;;;;;;;17.91;30.25;101422.59;5085091;28;20196;-73
2021/04/20 10:57:53;;;;;;;1.30;0.73;;;;;;;18.22;30.49;101418.88;5086000;28;20254;-73
2021/04/20 11:00:23;;;;;;;1.53;0.73;;;;;;;18.60;29.53;101379.19;5081232;28;20232;-73
2021/04/20 11:02:53;;;;;;;1.50;0.70;;;;;;;18.88;28.37;101400.19;5086423;28;20406;-74
2021/04/20 11:05:22;;;;;;;1.37;0.97;;;;;;;19.44;30.10;101398.59;5080579;28;20747;-74
2021/04/20 11:07:52;;;;;;;0.60;0.60;;;;;;;18.34;26.43;101399.72;5081776;28;20193;-73
2021/04/20 11:10:25;;;;;;;0.80;0.80;;;;;;;18.65;28.96;101398.69;5079999;28;20312;-77
2021/04/20 11:12:53;;;;;;;1.03;0.70;;;;;;;18.69;28.77;101394.72;5080568;28;20189;-77
2021/04/20 11:15:22;;;;;;;0.70;0.70;;;;;;;18.65;28.20;101393.25;5084471;28;20314;-77
2021/04/20 11:17:58;;;;;;;0.73;0.73;;;;;;;18.71;28.77;101391.88;5083219;28;20234;-77
2021/04/20 11:20:30;;;;;;;0.63;0.63;;;;;;;18.38;29.30;101387.59;5092217;28;20200;-77
2021/04/20 11:23:19;;;;;;;0.67;0.67;;;;;;;18.44;28.59;101387.03;5084340;28;20633;-77
2021/04/20 11:25:57;;;;;;;0.63;0.63;;;;;;;17.82;28.01;101388.06;5091203;28;20298;-75
2021/04/20 11:28:31;;;;;;;0.60;0.60;;;;;;;18.03;28.78;101380.72;5090790;28;20578;-75
2021/04/20 11:31:00;;;;;;;2.07;0.90;;;;;;;17.76;29.10;101369.59;5080875;28;20228;-75
2021/04/20 11:33:35;;;;;;;2.83;0.60;;;;;;;17.68;29.45;101362.97;5089751;28;20655;-75
2021/04/20 11:36:08;;;;;;;1.93;0.90;;;;;;;17.73;30.42;101369.84;5076642;28;20219;-74
2021/04/20 11:38:45;;;;;;;0.50;0.50;;;;;;;17.61;29.00;101374.47;5089168;28;20204;-77
2021/04/20 11:41:15;;;;;;;0.50;0.50;;;;;;;17.38;30.15;101371.03;5088606;28;20249;-77
2021/04/20 11:43:44;;;;;;;1.03;0.63;;;;;;;17.65;30.00;101359.63;5090868;28;20261;-77
2021/04/20 11:46:21;;;;;;;2.77;0.70;;;;;;;17.86;29.85;101362.34;5077509;28;20196;-74
2021/04/20 11:48:51;;;;;;;0.90;0.90;;;;;;;17.42;29.72;101358.03;5084091;28;20208;-75
2021/04/20 11:51:19;;;;;;;0.87;0.87;;;;;;;17.00;30.23;101360.75;5077717;28;20262;-74
2021/04/20 11:53:50;;;;;;;1.67;0.50;;;;;;;16.87;31.45;101354.66;5084514;28;20305;-74